logo
Rechercher aéroport 
image banner adimage banner adimage banner ad
image banner ad

60CL - Chp Academy

Situé à Bryte, United States

ICAO - 60CL, IATA -

Données fournies par Airmate  

Information générale

Coordonnées: N38°35'56" W121°33'38"
Élévation : 20 feet MSL.
Variation magnétique : 16° East
Voir autres Aéroports à California

Données opérationnelles

Special qualification required
Heure actuelle UTC:
Heure actuelle locale:
Météo à : KSMF - Sacramento Intl ( 11 km )
METAR: KSMF 281153Z 15010KT 10SM FEW200 16/11 A2992 RMK AO2 SLP131 T01560111 10189 20156 58003
TAF: KSMF 281122Z 2812/2912 18009KT P6SM FEW200
Voir NOTAMs / SUP AIP / TFR affectant cet aéroport [VIEW]
Fréquences de communication: [VIEW]

Pistes:

Identifiant RWYQFULongueur (ft)Largeur (ft)SurfaceLDA (ft)
05140024ASPH
23140024ASPH
16120020ASPH
34120020ASPH

Coordonnées de l'aéroport

Adresse: Bryte United States

Vue satellite de 60CL